createdAt,value
2017-12-24T00:01:18.154Z,9.10
2017-12-24T00:03:45.605Z,9.10
2017-12-24T00:06:13.814Z,9.00
2017-12-24T00:08:42.027Z,9.10
2017-12-24T00:11:09.479Z,9.10
2017-12-24T00:13:36.920Z,9.10
2017-12-24T00:16:04.359Z,9.10
2017-12-24T00:18:31.799Z,9.10
2017-12-24T00:20:59.268Z,9.10
2017-12-24T00:23:26.708Z,9.10
2017-12-24T00:25:54.152Z,9.10
2017-12-24T00:28:21.586Z,9.10
2017-12-24T00:30:49.802Z,9.20
2017-12-24T00:33:17.237Z,9.10
2017-12-24T00:35:44.703Z,9.10
2017-12-24T00:38:12.151Z,9.20
2017-12-24T00:40:39.595Z,9.20
2017-12-24T00:43:07.803Z,9.10
2017-12-24T00:45:35.252Z,9.10
2017-12-24T00:48:03.489Z,9.20
2017-12-24T00:50:31.715Z,9.10
2017-12-24T00:52:59.156Z,9.10
2017-12-24T00:55:26.595Z,9.10
2017-12-24T00:57:54.243Z,9.20
2017-12-24T01:00:21.660Z,9.20
2017-12-24T01:02:49.109Z,9.20
2017-12-24T01:05:16.547Z,9.20
2017-12-24T01:07:43.999Z,9.20
2017-12-24T01:10:11.440Z,9.20
2017-12-24T01:12:39.647Z,9.20
2017-12-24T01:15:07.093Z,9.20
2017-12-24T01:17:34.534Z,9.20
2017-12-24T01:20:01.971Z,9.20
2017-12-24T01:22:30.191Z,9.10
2017-12-24T01:24:57.627Z,9.10
2017-12-24T01:27:25.075Z,9.10
2017-12-24T01:29:52.515Z,9.10
2017-12-24T01:32:20.727Z,9.10
2017-12-24T01:34:48.167Z,9.10
2017-12-24T01:37:15.615Z,9.10
2017-12-24T01:39:43.047Z,9.20
2017-12-24T01:42:10.547Z,9.20
2017-12-24T01:44:37.973Z,9.20
2017-12-24T01:47:06.186Z,9.20
2017-12-24T01:49:33.629Z,9.10
2017-12-24T01:52:01.076Z,9.20
2017-12-24T01:54:28.510Z,9.20
2017-12-24T01:56:55.963Z,9.10
2017-12-24T01:59:24.167Z,9.10
2017-12-24T02:01:51.610Z,9.10
2017-12-24T02:04:19.809Z,9.10
2017-12-24T02:06:47.255Z,9.10
2017-12-24T02:09:14.693Z,9.10
2017-12-24T02:11:42.911Z,9.10
2017-12-24T02:14:10.355Z,9.10
2017-12-24T02:16:37.856Z,9.10
2017-12-24T02:19:05.287Z,9.10
2017-12-24T02:21:32.760Z,9.10
2017-12-24T02:24:00.199Z,9.10
2017-12-24T02:26:27.655Z,9.10
2017-12-24T02:28:55.097Z,9.10
2017-12-24T02:31:22.538Z,9.20
2017-12-24T02:33:49.972Z,9.10
2017-12-24T02:36:18.200Z,9.10
2017-12-24T02:38:45.641Z,9.10
2017-12-24T02:41:13.093Z,9.20
2017-12-24T02:43:40.527Z,9.20
2017-12-24T02:46:08.008Z,9.10
2017-12-24T02:48:35.465Z,9.10
2017-12-24T02:51:02.884Z,9.10
2017-12-24T02:53:31.100Z,9.10
2017-12-24T02:55:58.534Z,9.10
2017-12-24T02:58:25.978Z,9.20
2017-12-24T03:00:54.184Z,9.10
2017-12-24T03:03:21.633Z,9.10
2017-12-24T03:05:49.069Z,9.20
2017-12-24T03:08:17.279Z,9.20
2017-12-24T03:10:44.714Z,9.10
2017-12-24T03:13:12.162Z,9.10
2017-12-24T03:15:39.603Z,9.10
2017-12-24T03:18:07.035Z,9.10
2017-12-24T03:20:34.476Z,9.10
2017-12-24T03:23:01.935Z,9.10
2017-12-24T03:25:29.374Z,9.10
2017-12-24T03:27:56.826Z,9.10
2017-12-24T03:30:24.286Z,9.10
2017-12-24T03:32:51.731Z,9.10
2017-12-24T03:35:19.151Z,9.10
2017-12-24T03:37:47.366Z,9.10
2017-12-24T03:40:14.808Z,9.10
2017-12-24T03:42:42.251Z,9.20
2017-12-24T03:45:09.697Z,9.20
2017-12-24T03:47:37.908Z,9.20
2017-12-24T03:50:05.334Z,9.20
2017-12-24T03:52:32.778Z,9.20
2017-12-24T03:55:00.995Z,9.20
2017-12-24T03:57:28.463Z,9.20
2017-12-24T03:59:55.899Z,9.20
2017-12-24T04:02:23.346Z,9.20
2017-12-24T04:04:50.788Z,9.20
2017-12-24T04:07:18.999Z,9.10
2017-12-24T04:09:46.447Z,9.10
2017-12-24T04:12:13.898Z,9.20
2017-12-24T04:14:41.334Z,9.10
2017-12-24T04:17:09.543Z,9.10
2017-12-24T04:19:36.993Z,9.20
2017-12-24T04:22:04.434Z,9.20
2017-12-24T04:24:31.863Z,9.20
2017-12-24T04:27:00.083Z,9.20
2017-12-24T04:29:27.519Z,9.20
2017-12-24T04:31:54.966Z,9.10
2017-12-24T04:34:23.166Z,9.20
2017-12-24T04:36:50.619Z,9.20
2017-12-24T04:39:18.076Z,9.10
2017-12-24T04:41:45.523Z,9.20
2017-12-24T04:44:12.966Z,9.10
2017-12-24T04:46:41.167Z,9.20
2017-12-24T04:49:08.615Z,9.20
2017-12-24T04:51:36.063Z,9.20
2017-12-24T04:54:03.537Z,9.20
2017-12-24T04:56:30.954Z,9.20
2017-12-24T04:58:59.167Z,9.20
2017-12-24T05:01:26.602Z,9.20
2017-12-24T05:03:54.047Z,9.20
2017-12-24T05:06:22.313Z,9.20
2017-12-24T05:08:50.522Z,9.20
2017-12-24T05:11:17.958Z,9.20
2017-12-24T05:13:46.174Z,9.20
2017-12-24T05:16:13.610Z,9.30
2017-12-24T05:18:41.053Z,9.20
2017-12-24T05:21:08.494Z,9.20
2017-12-24T05:23:36.710Z,9.30
2017-12-24T05:26:04.148Z,9.30
2017-12-24T05:28:31.586Z,9.30
2017-12-24T05:30:59.791Z,9.20
2017-12-24T05:33:27.244Z,9.20
2017-12-24T05:35:54.670Z,9.20
2017-12-24T05:38:22.891Z,9.30
2017-12-24T05:40:50.334Z,9.30
2017-12-24T05:43:17.778Z,9.30
2017-12-24T05:45:45.222Z,9.30
2017-12-24T05:48:13.426Z,9.30
2017-12-24T05:50:40.875Z,9.30
2017-12-24T05:53:08.320Z,9.30
2017-12-24T05:55:35.762Z,9.30
2017-12-24T05:58:03.970Z,9.30
2017-12-24T06:00:31.419Z,9.30
2017-12-24T06:02:58.863Z,9.30
2017-12-24T06:05:26.319Z,9.30
2017-12-24T06:07:53.767Z,9.30
2017-12-24T06:10:21.968Z,9.30
2017-12-24T06:12:49.420Z,9.20
2017-12-24T06:15:16.859Z,9.20
2017-12-24T06:17:44.301Z,9.20
2017-12-24T06:20:12.503Z,9.20
2017-12-24T06:22:39.948Z,9.20
2017-12-24T06:25:07.380Z,9.20
2017-12-24T06:27:34.810Z,9.30
2017-12-24T06:30:02.254Z,9.20
2017-12-24T06:32:29.699Z,9.20
2017-12-24T06:34:57.143Z,9.20
2017-12-24T06:37:24.574Z,9.10
2017-12-24T06:39:52.791Z,9.20
2017-12-24T06:42:20.231Z,9.10
2017-12-24T06:44:47.674Z,9.10
2017-12-24T06:47:15.111Z,9.10
2017-12-24T06:49:43.323Z,9.20
2017-12-24T06:52:17.887Z,9.10
2017-12-24T06:54:45.326Z,9.10
2017-12-24T06:57:12.763Z,9.20
2017-12-24T06:59:40.207Z,9.20
2017-12-24T07:02:07.655Z,9.10
2017-12-24T07:04:35.107Z,9.20
2017-12-24T07:07:02.542Z,9.20
2017-12-24T07:09:30.754Z,9.20
2017-12-24T07:11:58.190Z,9.10
2017-12-24T07:14:25.639Z,9.10
2017-12-24T07:16:53.840Z,9.10
2017-12-24T07:19:21.287Z,9.10
2017-12-24T07:21:48.722Z,9.10
2017-12-24T07:24:16.934Z,9.20
2017-12-24T07:26:44.374Z,9.20
2017-12-24T07:29:11.818Z,9.20
2017-12-24T07:31:39.257Z,9.20
2017-12-24T07:34:06.728Z,9.20
2017-12-24T07:36:34.932Z,9.20
2017-12-24T07:39:02.377Z,9.20
2017-12-24T07:41:29.821Z,9.20
2017-12-24T07:43:58.032Z,9.20
2017-12-24T07:46:25.467Z,9.20
2017-12-24T07:48:52.923Z,9.20
2017-12-24T07:51:20.346Z,9.20
2017-12-24T07:53:48.560Z,9.20
2017-12-24T07:56:15.991Z,9.20
2017-12-24T07:58:44.199Z,9.20
2017-12-24T08:01:11.635Z,9.20
2017-12-24T08:03:39.074Z,9.20
2017-12-24T08:06:07.273Z,9.20
2017-12-24T08:08:34.710Z,9.20
2017-12-24T08:11:02.150Z,9.20
2017-12-24T08:13:30.360Z,9.20
2017-12-24T08:15:57.798Z,9.20
2017-12-24T08:18:25.237Z,9.20
2017-12-24T08:20:53.455Z,9.20
2017-12-24T08:23:21.279Z,9.20
2017-12-24T08:25:48.709Z,9.20
2017-12-24T08:28:16.142Z,9.30
2017-12-24T08:30:43.591Z,9.30
2017-12-24T08:33:11.031Z,9.30
2017-12-24T08:35:38.475Z,9.30
2017-12-24T08:38:05.914Z,9.20
2017-12-24T08:40:34.122Z,9.30
2017-12-24T08:43:01.562Z,9.30
2017-12-24T08:45:29.006Z,9.30
2017-12-24T08:47:57.280Z,9.30
2017-12-24T08:50:24.651Z,9.30
2017-12-24T08:52:52.088Z,9.30
2017-12-24T08:55:20.304Z,9.30
2017-12-24T08:57:47.744Z,9.30
2017-12-24T09:00:15.187Z,9.30
2017-12-24T09:02:43.393Z,9.30
2017-12-24T09:05:10.834Z,9.30
2017-12-24T09:07:38.267Z,9.20
2017-12-24T09:10:06.485Z,9.20
2017-12-24T09:12:33.916Z,9.20
2017-12-24T09:15:01.358Z,9.30
2017-12-24T09:17:29.559Z,9.30
2017-12-24T09:19:56.999Z,9.20
2017-12-24T09:22:24.443Z,9.20
2017-12-24T09:24:52.658Z,9.30
2017-12-24T09:27:20.091Z,9.20
2017-12-24T09:29:47.530Z,9.30
2017-12-24T09:32:15.731Z,9.20
2017-12-24T09:34:43.171Z,9.20
2017-12-24T09:37:10.610Z,9.20
2017-12-24T09:39:38.816Z,9.20
2017-12-24T09:42:06.251Z,9.20
2017-12-24T09:44:35.584Z,9.20
2017-12-24T09:47:03.007Z,9.20
2017-12-24T09:49:31.228Z,9.20
2017-12-24T09:51:58.666Z,9.20
2017-12-24T09:54:26.112Z,9.30
2017-12-24T09:56:53.551Z,9.20
2017-12-24T09:59:21.754Z,9.20
2017-12-24T10:01:49.190Z,9.20
2017-12-24T10:04:16.627Z,9.20
2017-12-24T10:06:44.835Z,9.20
2017-12-24T10:09:12.283Z,9.20
2017-12-24T10:11:39.706Z,9.10
2017-12-24T10:14:07.142Z,9.20
2017-12-24T10:16:34.592Z,9.10
2017-12-24T10:19:02.022Z,9.20
2017-12-24T10:21:29.500Z,9.20
2017-12-24T10:23:56.935Z,9.20
2017-12-24T10:26:24.386Z,9.20
2017-12-24T10:28:51.830Z,9.20
2017-12-24T10:31:19.275Z,9.30
2017-12-24T10:33:47.489Z,9.30
2017-12-24T10:36:14.935Z,9.30
2017-12-24T10:38:42.371Z,9.30
2017-12-24T10:41:10.590Z,9.30
2017-12-24T10:43:38.030Z,9.30
2017-12-24T10:46:05.467Z,9.30
2017-12-24T10:48:32.909Z,9.20
2017-12-24T10:51:01.119Z,9.20
2017-12-24T10:53:28.561Z,9.20
2017-12-24T10:55:56.026Z,9.10
2017-12-24T10:58:23.446Z,9.20
2017-12-24T11:00:51.651Z,9.30
2017-12-24T11:03:19.087Z,9.20
2017-12-24T11:05:46.526Z,9.20
2017-12-24T11:08:14.730Z,9.20
2017-12-24T11:10:42.175Z,9.20
2017-12-24T11:13:09.614Z,9.20
2017-12-24T11:15:37.826Z,9.20
2017-12-24T11:18:05.272Z,9.20
2017-12-24T11:20:32.702Z,9.20
2017-12-24T11:23:00.915Z,9.20
2017-12-24T11:25:28.375Z,9.20
2017-12-24T11:27:55.807Z,9.30
2017-12-24T11:30:23.243Z,9.20
2017-12-24T11:32:50.681Z,9.20
2017-12-24T11:35:18.123Z,9.20
2017-12-24T11:37:45.555Z,9.10
2017-12-24T11:40:13.002Z,9.00
2017-12-24T11:42:40.440Z,9.10
2017-12-24T11:45:08.650Z,9.00
2017-12-24T11:47:36.094Z,9.00
2017-12-24T11:50:03.527Z,8.90
2017-12-24T11:52:31.732Z,8.90
2017-12-24T11:54:59.172Z,8.90
2017-12-24T11:57:26.599Z,8.90
2017-12-24T11:59:54.809Z,8.90
2017-12-24T12:02:22.245Z,8.90
2017-12-24T12:04:49.687Z,8.90
2017-12-24T12:07:17.886Z,8.90
2017-12-24T12:09:45.318Z,8.90
2017-12-24T12:12:13.527Z,8.90
2017-12-24T12:14:40.954Z,8.90
2017-12-24T12:17:09.163Z,8.90
2017-12-24T12:19:36.601Z,8.90
2017-12-24T12:22:04.044Z,8.90
2017-12-24T12:24:32.239Z,8.80
2017-12-24T12:26:59.688Z,8.80
2017-12-24T12:29:27.114Z,8.80
2017-12-24T12:31:54.554Z,8.80
2017-12-24T12:34:21.986Z,8.80
2017-12-24T12:36:49.438Z,8.70
2017-12-24T12:39:16.874Z,8.70
2017-12-24T12:41:44.326Z,8.70
2017-12-24T12:44:11.758Z,8.80
2017-12-24T12:46:39.976Z,8.70
2017-12-24T12:49:07.400Z,8.70
2017-12-24T12:51:35.604Z,8.60
2017-12-24T12:54:03.041Z,8.60
2017-12-24T12:56:30.478Z,8.60
2017-12-24T12:58:58.675Z,8.60
2017-12-24T13:01:26.110Z,8.60
2017-12-24T13:03:54.315Z,8.60
2017-12-24T13:06:21.754Z,8.60
2017-12-24T13:08:49.184Z,8.60
2017-12-24T13:11:16.622Z,8.60
2017-12-24T13:13:44.064Z,8.60
2017-12-24T13:16:11.510Z,8.60
2017-12-24T13:18:38.947Z,8.60
2017-12-24T13:21:06.391Z,8.60
2017-12-24T13:23:33.828Z,8.60
2017-12-24T13:26:02.028Z,8.60
2017-12-24T13:28:29.459Z,8.60
2017-12-24T13:30:57.668Z,8.60
2017-12-24T13:33:25.099Z,8.60
2017-12-24T13:35:53.311Z,8.60
2017-12-24T13:38:20.743Z,8.60
2017-12-24T13:40:48.188Z,8.60
2017-12-24T13:43:16.379Z,8.60
2017-12-24T13:45:43.827Z,8.60
2017-12-24T13:48:11.262Z,8.60
2017-12-24T13:50:39.468Z,8.60
2017-12-24T13:53:06.899Z,8.60
2017-12-24T13:55:35.163Z,8.60
2017-12-24T13:58:02.596Z,8.70
2017-12-24T14:00:30.046Z,8.70
2017-12-24T14:02:57.476Z,8.70
2017-12-24T14:05:24.911Z,8.80
2017-12-24T14:07:52.342Z,8.80
2017-12-24T14:10:20.539Z,8.80
2017-12-24T14:12:47.985Z,8.80
2017-12-24T14:15:16.183Z,8.80
2017-12-24T14:17:43.632Z,8.80
2017-12-24T14:20:11.066Z,8.80
2017-12-24T14:22:39.271Z,8.80
2017-12-24T14:25:06.711Z,8.80
2017-12-24T14:27:34.916Z,8.80
2017-12-24T14:30:02.365Z,8.80
2017-12-24T14:32:29.795Z,8.80
2017-12-24T14:34:57.992Z,8.80
2017-12-24T14:37:25.442Z,8.70
2017-12-24T14:39:52.870Z,8.80
2017-12-24T14:42:21.081Z,8.80
2017-12-24T14:44:48.522Z,8.80
2017-12-24T14:47:15.962Z,8.80
2017-12-24T14:49:44.164Z,8.80
2017-12-24T14:52:11.603Z,8.80
2017-12-24T14:54:39.044Z,8.80
2017-12-24T14:57:07.252Z,8.80
2017-12-24T14:59:34.685Z,8.80
2017-12-24T15:02:03.670Z,8.80
2017-12-24T15:04:31.873Z,8.80
2017-12-24T15:06:59.311Z,8.90
2017-12-24T15:09:26.751Z,8.90
2017-12-24T15:11:54.970Z,8.90
2017-12-24T15:14:22.402Z,8.90
2017-12-24T15:16:49.847Z,8.90
2017-12-24T15:19:18.047Z,9.00
2017-12-24T15:21:45.497Z,9.00
2017-12-24T15:24:12.928Z,9.00
2017-12-24T15:26:41.142Z,9.00
2017-12-24T15:29:08.599Z,8.90
2017-12-24T15:31:36.043Z,9.00
2017-12-24T15:34:03.484Z,9.00
2017-12-24T15:36:31.691Z,9.00
2017-12-24T15:38:59.130Z,9.00
2017-12-24T15:41:26.579Z,9.00
2017-12-24T15:43:54.020Z,9.00
2017-12-24T15:46:22.226Z,9.10
2017-12-24T15:48:49.667Z,9.10
2017-12-24T15:51:17.131Z,9.10
2017-12-24T15:53:44.566Z,9.10
2017-12-24T15:56:12.771Z,9.10
2017-12-24T15:58:40.220Z,9.10
2017-12-24T16:01:07.653Z,9.10
2017-12-24T16:03:35.894Z,9.10
2017-12-24T16:06:03.339Z,9.10
2017-12-24T16:08:30.807Z,9.10
2017-12-24T16:10:58.230Z,9.20
2017-12-24T16:13:25.674Z,9.20
2017-12-24T16:15:53.110Z,9.20
2017-12-24T16:18:21.324Z,9.20
2017-12-24T16:20:48.759Z,9.20
2017-12-24T16:23:16.204Z,9.20
2017-12-24T16:25:44.406Z,9.20
2017-12-24T16:28:11.856Z,9.20
2017-12-24T16:30:39.290Z,9.30
2017-12-24T16:33:06.747Z,9.30
2017-12-24T16:35:34.189Z,9.30
2017-12-24T16:38:02.395Z,9.30
2017-12-24T16:40:29.832Z,9.30
2017-12-24T16:42:58.048Z,9.30
2017-12-24T16:45:25.479Z,9.30
2017-12-24T16:47:52.919Z,9.30
2017-12-24T16:50:21.123Z,9.30
2017-12-24T16:52:48.568Z,9.30
2017-12-24T16:55:16.004Z,9.30
2017-12-24T16:57:44.220Z,9.30
2017-12-24T17:00:11.655Z,9.30
2017-12-24T17:02:39.096Z,9.40
2017-12-24T17:05:06.526Z,9.30
2017-12-24T17:07:33.971Z,9.30
2017-12-24T17:10:01.414Z,9.40
2017-12-24T17:12:28.855Z,9.40
2017-12-24T17:14:56.291Z,9.40
2017-12-24T17:17:23.739Z,9.40
2017-12-24T17:19:51.176Z,9.40
2017-12-24T17:22:19.389Z,9.40
2017-12-24T17:24:46.819Z,9.40
2017-12-24T17:27:14.263Z,9.40
2017-12-24T17:29:42.463Z,9.40
2017-12-24T17:32:09.903Z,9.40
2017-12-24T17:34:38.111Z,9.30
2017-12-24T17:37:05.559Z,9.40
2017-12-24T17:39:32.993Z,9.40
2017-12-24T17:42:01.203Z,9.40
2017-12-24T17:44:28.647Z,9.40
2017-12-24T17:46:56.092Z,9.40
2017-12-24T17:49:23.526Z,9.40
2017-12-24T17:51:51.727Z,9.40
2017-12-24T17:54:19.172Z,9.40
2017-12-24T17:56:46.602Z,9.40
2017-12-24T17:59:14.043Z,9.40
2017-12-24T18:01:41.479Z,9.40
2017-12-24T18:04:08.927Z,9.40
2017-12-24T18:06:36.386Z,9.50
2017-12-24T18:09:03.823Z,9.50
2017-12-24T18:11:31.259Z,9.40
2017-12-24T18:13:59.467Z,9.40
2017-12-24T18:16:26.903Z,9.40
2017-12-24T18:18:54.344Z,9.40
2017-12-24T18:21:22.558Z,9.40
2017-12-24T18:23:49.995Z,9.30
2017-12-24T18:26:17.431Z,9.40
2017-12-24T18:28:45.637Z,9.40
2017-12-24T18:31:13.075Z,9.30
2017-12-24T18:33:40.515Z,9.40
2017-12-24T18:36:08.715Z,9.40
2017-12-24T18:38:36.163Z,9.40
2017-12-24T18:41:03.599Z,9.40
2017-12-24T18:43:31.809Z,9.30
2017-12-24T18:45:59.253Z,9.30
2017-12-24T18:48:26.720Z,9.30
2017-12-24T18:50:54.145Z,9.30
2017-12-24T18:53:23.151Z,9.30
2017-12-24T18:55:50.587Z,9.30
2017-12-24T18:58:18.807Z,9.30
2017-12-24T19:00:46.248Z,9.30
2017-12-24T19:03:13.687Z,9.30
2017-12-24T19:05:41.892Z,9.30
2017-12-24T19:08:09.346Z,9.30
2017-12-24T19:10:36.775Z,9.30
2017-12-24T19:13:05.028Z,9.30
2017-12-24T19:15:32.462Z,9.30
2017-12-24T19:17:59.914Z,9.30
2017-12-24T19:20:27.351Z,9.30
2017-12-24T19:22:54.804Z,9.20
2017-12-24T19:25:22.243Z,9.20
2017-12-24T19:27:49.689Z,9.20
2017-12-24T19:30:17.141Z,9.30
2017-12-24T19:32:45.347Z,9.30
2017-12-24T19:35:12.787Z,9.30
2017-12-24T19:37:40.223Z,9.30
2017-12-24T19:40:07.671Z,9.30
2017-12-24T19:42:35.108Z,9.30
2017-12-24T19:45:02.563Z,9.30
2017-12-24T19:47:29.999Z,9.20
2017-12-24T19:49:57.439Z,9.20
2017-12-24T19:52:24.880Z,9.20
2017-12-24T19:54:52.323Z,9.20
2017-12-24T19:57:20.539Z,9.20
2017-12-24T19:59:47.998Z,9.20
2017-12-24T20:02:15.440Z,9.20
2017-12-24T20:04:42.894Z,9.20
2017-12-24T20:07:10.326Z,9.20
2017-12-24T20:09:38.558Z,9.20
2017-12-24T20:12:06.008Z,9.20
2017-12-24T20:14:33.448Z,9.20
2017-12-24T20:17:00.881Z,9.20
2017-12-24T20:19:28.323Z,9.20
2017-12-24T20:21:56.524Z,9.20
2017-12-24T20:24:24.375Z,9.20
2017-12-24T20:26:51.812Z,9.20
2017-12-24T20:29:20.047Z,9.20
2017-12-24T20:31:47.495Z,9.10
2017-12-24T20:34:20.711Z,9.10
2017-12-24T20:36:48.152Z,9.10
2017-12-24T20:39:15.595Z,9.10
2017-12-24T20:41:43.036Z,9.00
2017-12-24T20:44:10.476Z,9.10
2017-12-24T20:46:37.918Z,9.00
2017-12-24T20:49:06.123Z,9.00
2017-12-24T20:51:33.567Z,9.00
2017-12-24T20:54:01.000Z,9.00
2017-12-24T20:56:29.214Z,8.90
2017-12-24T20:58:56.653Z,8.90
2017-12-24T21:01:24.090Z,8.90
2017-12-24T21:03:52.295Z,8.80
2017-12-24T21:06:19.736Z,8.80
2017-12-24T21:08:47.175Z,8.80
2017-12-24T21:11:15.380Z,8.80
2017-12-24T21:13:42.839Z,8.80
2017-12-24T21:16:10.273Z,8.70
2017-12-24T21:18:38.468Z,8.70
2017-12-24T21:21:05.899Z,8.60
2017-12-24T21:23:34.099Z,8.50
2017-12-24T21:26:01.538Z,8.50
2017-12-24T21:28:29.040Z,8.60
2017-12-24T21:30:56.483Z,8.60
2017-12-24T21:33:23.919Z,8.60
2017-12-24T21:35:51.350Z,8.70
2017-12-24T21:38:19.556Z,8.70
2017-12-24T21:40:46.990Z,8.70
2017-12-24T21:43:15.199Z,8.80
2017-12-24T21:45:42.638Z,8.70
2017-12-24T21:48:10.086Z,8.70
2017-12-24T21:50:37.520Z,8.70
2017-12-24T21:53:05.725Z,8.70
2017-12-24T21:55:33.167Z,8.70
2017-12-24T21:58:01.391Z,8.70
2017-12-24T22:00:28.810Z,8.70
2017-12-24T22:02:56.250Z,8.70
2017-12-24T22:05:24.450Z,8.70
2017-12-24T22:07:51.898Z,8.70
2017-12-24T22:10:19.327Z,8.70
2017-12-24T22:12:47.538Z,8.70
2017-12-24T22:15:14.974Z,8.70
2017-12-24T22:17:42.415Z,8.70
2017-12-24T22:20:10.614Z,8.70
2017-12-24T22:22:38.063Z,8.60
2017-12-24T22:25:05.496Z,8.60
2017-12-24T22:27:33.704Z,8.60
2017-12-24T22:30:01.140Z,8.60
2017-12-24T22:32:29.346Z,8.50
2017-12-24T22:34:57.214Z,8.50
2017-12-24T22:37:24.659Z,8.50
2017-12-24T22:39:52.094Z,8.50
2017-12-24T22:42:20.306Z,8.40
2017-12-24T22:44:47.767Z,8.50
2017-12-24T22:47:15.195Z,8.50
2017-12-24T22:49:42.631Z,8.50
2017-12-24T22:52:10.832Z,8.40
2017-12-24T22:54:38.397Z,8.40
2017-12-24T22:57:05.833Z,8.40
2017-12-24T22:59:33.270Z,8.50
2017-12-24T23:02:01.475Z,8.40
2017-12-24T23:04:28.926Z,8.40
2017-12-24T23:06:56.362Z,8.40
2017-12-24T23:09:24.574Z,8.40
2017-12-24T23:11:52.007Z,8.40
2017-12-24T23:14:19.446Z,8.40
2017-12-24T23:16:47.647Z,8.40
2017-12-24T23:19:15.088Z,8.40
2017-12-24T23:21:43.283Z,8.30
2017-12-24T23:24:10.722Z,8.30
2017-12-24T23:26:38.155Z,8.40
2017-12-24T23:29:06.367Z,8.30
2017-12-24T23:31:33.823Z,8.30
2017-12-24T23:34:01.263Z,8.30
2017-12-24T23:36:28.700Z,8.30
2017-12-24T23:38:56.140Z,8.30
2017-12-24T23:41:23.567Z,8.30
2017-12-24T23:43:51.050Z,8.40
2017-12-24T23:46:18.489Z,8.30
2017-12-24T23:48:45.920Z,8.30
2017-12-24T23:51:13.381Z,8.30
2017-12-24T23:53:40.802Z,8.30
2017-12-24T23:56:09.009Z,8.40
2017-12-24T23:58:36.442Z,8.30
